sensor_id;sensor_type;location;lat;lon;timestamp;P1;durP1;ratioP1;P2;durP2;ratioP2
58470;SDS011;44258;51.288;12.068;2023-03-05T00:02:03;11.43;;;2.65;;
58470;SDS011;44258;51.288;12.068;2023-03-05T00:04:30;12.43;;;3.13;;
58470;SDS011;44258;51.288;12.068;2023-03-05T00:06:56;8.70;;;2.53;;
58470;SDS011;44258;51.288;12.068;2023-03-05T00:09:23;10.57;;;3.05;;
58470;SDS011;44258;51.288;12.068;2023-03-05T00:11:51;9.82;;;3.15;;
58470;SDS011;44258;51.288;12.068;2023-03-05T00:14:17;8.95;;;2.20;;
58470;SDS011;44258;51.288;12.068;2023-03-05T00:16:44;12.23;;;2.60;;
58470;SDS011;44258;51.288;12.068;2023-03-05T00:19:10;9.80;;;2.38;;
58470;SDS011;44258;51.288;12.068;2023-03-05T00:21:38;9.48;;;2.22;;
58470;SDS011;44258;51.288;12.068;2023-03-05T00:24:06;14.23;;;2.50;;
58470;SDS011;44258;51.288;12.068;2023-03-05T00:26:34;8.75;;;2.03;;
58470;SDS011;44258;51.288;12.068;2023-03-05T00:29:04;9.45;;;2.28;;
58470;SDS011;44258;51.288;12.068;2023-03-05T00:31:32;11.25;;;2.25;;
58470;SDS011;44258;51.288;12.068;2023-03-05T00:34:01;9.65;;;2.55;;
58470;SDS011;44258;51.288;12.068;2023-03-05T00:36:29;9.80;;;2.03;;
58470;SDS011;44258;51.288;12.068;2023-03-05T00:38:56;8.48;;;2.00;;
58470;SDS011;44258;51.288;12.068;2023-03-05T00:41:23;7.90;;;1.80;;
58470;SDS011;44258;51.288;12.068;2023-03-05T00:43:50;8.02;;;1.75;;
58470;SDS011;44258;51.288;12.068;2023-03-05T00:46:18;8.40;;;1.63;;
58470;SDS011;44258;51.288;12.068;2023-03-05T00:48:44;7.32;;;1.65;;
58470;SDS011;44258;51.288;12.068;2023-03-05T00:51:11;5.78;;;1.80;;
58470;SDS011;44258;51.288;12.068;2023-03-05T00:53:37;6.75;;;1.80;;
58470;SDS011;44258;51.288;12.068;2023-03-05T00:56:04;10.88;;;2.25;;
58470;SDS011;44258;51.288;12.068;2023-03-05T00:58:31;9.48;;;1.98;;
58470;SDS011;44258;51.288;12.068;2023-03-05T01:00:59;7.97;;;2.10;;
58470;SDS011;44258;51.288;12.068;2023-03-05T01:03:28;6.97;;;1.73;;
58470;SDS011;44258;51.288;12.068;2023-03-05T01:05:55;7.30;;;1.92;;
58470;SDS011;44258;51.288;12.068;2023-03-05T01:08:22;6.00;;;1.60;;
58470;SDS011;44258;51.288;12.068;2023-03-05T01:10:48;5.88;;;1.35;;
58470;SDS011;44258;51.288;12.068;2023-03-05T01:13:15;4.93;;;1.30;;
58470;SDS011;44258;51.288;12.068;2023-03-05T01:15:41;5.78;;;1.40;;
58470;SDS011;44258;51.288;12.068;2023-03-05T01:18:08;5.32;;;1.35;;
58470;SDS011;44258;51.288;12.068;2023-03-05T01:20:36;10.30;;;1.70;;
58470;SDS011;44258;51.288;12.068;2023-03-05T01:23:02;5.43;;;1.23;;
58470;SDS011;44258;51.288;12.068;2023-03-05T01:25:28;7.00;;;1.50;;
58470;SDS011;44258;51.288;12.068;2023-03-05T01:27:56;5.90;;;1.40;;
58470;SDS011;44258;51.288;12.068;2023-03-05T01:30:23;8.52;;;1.52;;
58470;SDS011;44258;51.288;12.068;2023-03-05T01:32:49;6.90;;;1.23;;
58470;SDS011;44258;51.288;12.068;2023-03-05T01:35:16;4.28;;;1.40;;
58470;SDS011;44258;51.288;12.068;2023-03-05T01:37:46;7.80;;;1.70;;
58470;SDS011;44258;51.288;12.068;2023-03-05T01:40:14;7.47;;;1.55;;
58470;SDS011;44258;51.288;12.068;2023-03-05T01:42:43;5.50;;;1.27;;
58470;SDS011;44258;51.288;12.068;2023-03-05T01:45:13;5.63;;;1.45;;
58470;SDS011;44258;51.288;12.068;2023-03-05T01:47:42;7.15;;;1.73;;
58470;SDS011;44258;51.288;12.068;2023-03-05T01:50:11;3.95;;;1.20;;
58470;SDS011;44258;51.288;12.068;2023-03-05T01:52:44;2.92;;;1.05;;
58470;SDS011;44258;51.288;12.068;2023-03-05T01:55:15;5.32;;;1.48;;
58470;SDS011;44258;51.288;12.068;2023-03-05T01:57:45;8.52;;;1.50;;
58470;SDS011;44258;51.288;12.068;2023-03-05T02:00:15;5.43;;;1.35;;
58470;SDS011;44258;51.288;12.068;2023-03-05T02:02:45;8.55;;;1.70;;
58470;SDS011;44258;51.288;12.068;2023-03-05T02:05:15;4.82;;;1.30;;
58470;SDS011;44258;51.288;12.068;2023-03-05T02:07:44;5.82;;;1.60;;
58470;SDS011;44258;51.288;12.068;2023-03-05T02:12:48;8.82;;;1.80;;
58470;SDS011;44258;51.288;12.068;2023-03-05T02:15:16;7.55;;;1.70;;
58470;SDS011;44258;51.288;12.068;2023-03-05T02:17:43;7.85;;;1.70;;
58470;SDS011;44258;51.288;12.068;2023-03-05T02:20:11;6.07;;;1.63;;
58470;SDS011;44258;51.288;12.068;2023-03-05T02:22:43;5.72;;;2.08;;
58470;SDS011;44258;51.288;12.068;2023-03-05T02:25:11;8.30;;;1.85;;
58470;SDS011;44258;51.288;12.068;2023-03-05T02:27:40;10.27;;;2.03;;
58470;SDS011;44258;51.288;12.068;2023-03-05T02:30:10;7.97;;;2.20;;
58470;SDS011;44258;51.288;12.068;2023-03-05T02:32:38;7.78;;;2.10;;
58470;SDS011;44258;51.288;12.068;2023-03-05T02:35:05;8.93;;;2.65;;
58470;SDS011;44258;51.288;12.068;2023-03-05T02:37:33;12.52;;;3.78;;
58470;SDS011;44258;51.288;12.068;2023-03-05T02:40:01;14.25;;;4.18;;
58470;SDS011;44258;51.288;12.068;2023-03-05T02:42:28;12.27;;;3.88;;
58470;SDS011;44258;51.288;12.068;2023-03-05T02:44:57;19.00;;;4.00;;
58470;SDS011;44258;51.288;12.068;2023-03-05T02:47:24;8.52;;;2.53;;
58470;SDS011;44258;51.288;12.068;2023-03-05T02:49:53;13.55;;;2.72;;
58470;SDS011;44258;51.288;12.068;2023-03-05T02:52:21;8.30;;;2.42;;
58470;SDS011;44258;51.288;12.068;2023-03-05T02:54:48;9.57;;;2.40;;
58470;SDS011;44258;51.288;12.068;2023-03-05T02:57:16;8.45;;;1.92;;
58470;SDS011;44258;51.288;12.068;2023-03-05T02:59:43;6.00;;;1.70;;
58470;SDS011;44258;51.288;12.068;2023-03-05T03:02:11;10.00;;;2.20;;
58470;SDS011;44258;51.288;12.068;2023-03-05T03:04:38;6.80;;;2.20;;
58470;SDS011;44258;51.288;12.068;2023-03-05T03:07:06;4.72;;;1.85;;
58470;SDS011;44258;51.288;12.068;2023-03-05T03:09:33;7.57;;;2.30;;
58470;SDS011;44258;51.288;12.068;2023-03-05T03:12:00;9.35;;;2.38;;
58470;SDS011;44258;51.288;12.068;2023-03-05T03:14:30;6.88;;;1.50;;
58470;SDS011;44258;51.288;12.068;2023-03-05T03:17:01;2.75;;;1.00;;
58470;SDS011;44258;51.288;12.068;2023-03-05T03:19:28;3.97;;;1.17;;
58470;SDS011;44258;51.288;12.068;2023-03-05T03:21:55;2.47;;;0.82;;
58470;SDS011;44258;51.288;12.068;2023-03-05T03:24:22;3.15;;;0.98;;
58470;SDS011;44258;51.288;12.068;2023-03-05T03:26:49;3.13;;;0.73;;
58470;SDS011;44258;51.288;12.068;2023-03-05T03:29:16;4.43;;;0.70;;
58470;SDS011;44258;51.288;12.068;2023-03-05T03:31:44;5.15;;;0.90;;
58470;SDS011;44258;51.288;12.068;2023-03-05T03:34:11;4.47;;;0.98;;
58470;SDS011;44258;51.288;12.068;2023-03-05T03:36:39;2.67;;;0.57;;
58470;SDS011;44258;51.288;12.068;2023-03-05T03:39:06;3.63;;;0.85;;
58470;SDS011;44258;51.288;12.068;2023-03-05T03:41:34;3.75;;;0.80;;
58470;SDS011;44258;51.288;12.068;2023-03-05T03:44:00;5.00;;;0.88;;
58470;SDS011;44258;51.288;12.068;2023-03-05T03:46:29;3.47;;;0.80;;
58470;SDS011;44258;51.288;12.068;2023-03-05T03:48:57;3.03;;;0.70;;
58470;SDS011;44258;51.288;12.068;2023-03-05T03:51:24;5.50;;;0.82;;
58470;SDS011;44258;51.288;12.068;2023-03-05T03:53:51;6.68;;;1.15;;
58470;SDS011;44258;51.288;12.068;2023-03-05T03:56:17;8.05;;;0.85;;
58470;SDS011;44258;51.288;12.068;2023-03-05T03:58:44;2.97;;;1.00;;
58470;SDS011;44258;51.288;12.068;2023-03-05T04:01:11;3.30;;;0.82;;
58470;SDS011;44258;51.288;12.068;2023-03-05T04:03:37;5.47;;;1.10;;
58470;SDS011;44258;51.288;12.068;2023-03-05T04:06:06;5.50;;;0.90;;
58470;SDS011;44258;51.288;12.068;2023-03-05T04:08:33;3.53;;;0.95;;
58470;SDS011;44258;51.288;12.068;2023-03-05T04:11:00;2.35;;;1.05;;
58470;SDS011;44258;51.288;12.068;2023-03-05T04:13:27;2.92;;;1.15;;
58470;SDS011;44258;51.288;12.068;2023-03-05T04:15:54;4.03;;;1.35;;
58470;SDS011;44258;51.288;12.068;2023-03-05T04:18:21;5.85;;;1.92;;
58470;SDS011;44258;51.288;12.068;2023-03-05T04:20:48;5.57;;;1.42;;
58470;SDS011;44258;51.288;12.068;2023-03-05T04:23:16;6.32;;;1.42;;
58470;SDS011;44258;51.288;12.068;2023-03-05T04:25:43;4.47;;;1.42;;
58470;SDS011;44258;51.288;12.068;2023-03-05T04:28:10;3.05;;;1.20;;
58470;SDS011;44258;51.288;12.068;2023-03-05T04:30:36;8.35;;;1.42;;
58470;SDS011;44258;51.288;12.068;2023-03-05T04:33:03;3.30;;;1.27;;
58470;SDS011;44258;51.288;12.068;2023-03-05T04:35:30;3.80;;;1.25;;
58470;SDS011;44258;51.288;12.068;2023-03-05T04:37:57;5.38;;;1.40;;
58470;SDS011;44258;51.288;12.068;2023-03-05T04:40:25;4.30;;;1.20;;
58470;SDS011;44258;51.288;12.068;2023-03-05T04:42:52;2.83;;;1.13;;
58470;SDS011;44258;51.288;12.068;2023-03-05T04:45:19;3.50;;;1.20;;
58470;SDS011;44258;51.288;12.068;2023-03-05T04:47:46;3.63;;;1.15;;
58470;SDS011;44258;51.288;12.068;2023-03-05T04:50:13;5.53;;;1.52;;
58470;SDS011;44258;51.288;12.068;2023-03-05T04:52:41;4.05;;;1.30;;
58470;SDS011;44258;51.288;12.068;2023-03-05T04:55:10;2.72;;;1.25;;
58470;SDS011;44258;51.288;12.068;2023-03-05T04:57:39;4.03;;;1.38;;
58470;SDS011;44258;51.288;12.068;2023-03-05T05:00:07;6.07;;;1.48;;
58470;SDS011;44258;51.288;12.068;2023-03-05T05:02:38;6.40;;;1.90;;
58470;SDS011;44258;51.288;12.068;2023-03-05T05:05:06;6.95;;;1.23;;
58470;SDS011;44258;51.288;12.068;2023-03-05T05:07:34;4.03;;;1.27;;
58470;SDS011;44258;51.288;12.068;2023-03-05T05:10:01;5.95;;;1.55;;
58470;SDS011;44258;51.288;12.068;2023-03-05T05:12:28;4.20;;;1.40;;
58470;SDS011;44258;51.288;12.068;2023-03-05T05:14:56;6.43;;;1.70;;
58470;SDS011;44258;51.288;12.068;2023-03-05T05:17:23;4.50;;;1.50;;
58470;SDS011;44258;51.288;12.068;2023-03-05T05:19:51;3.17;;;1.25;;
58470;SDS011;44258;51.288;12.068;2023-03-05T05:22:19;3.95;;;1.58;;
58470;SDS011;44258;51.288;12.068;2023-03-05T05:24:45;4.28;;;1.45;;
58470;SDS011;44258;51.288;12.068;2023-03-05T05:27:12;7.43;;;1.80;;
58470;SDS011;44258;51.288;12.068;2023-03-05T05:29:39;6.10;;;1.83;;
58470;SDS011;44258;51.288;12.068;2023-03-05T05:32:10;5.72;;;1.50;;
58470;SDS011;44258;51.288;12.068;2023-03-05T05:34:37;4.82;;;1.45;;
58470;SDS011;44258;51.288;12.068;2023-03-05T05:37:04;5.47;;;1.38;;
58470;SDS011;44258;51.288;12.068;2023-03-05T05:39:30;6.60;;;1.45;;
58470;SDS011;44258;51.288;12.068;2023-03-05T05:41:59;10.02;;;1.63;;
58470;SDS011;44258;51.288;12.068;2023-03-05T05:44:26;3.65;;;1.30;;
58470;SDS011;44258;51.288;12.068;2023-03-05T05:46:53;8.05;;;1.95;;
58470;SDS011;44258;51.288;12.068;2023-03-05T05:49:21;4.15;;;1.50;;
58470;SDS011;44258;51.288;12.068;2023-03-05T05:51:47;5.03;;;1.60;;
58470;SDS011;44258;51.288;12.068;2023-03-05T05:54:14;5.22;;;1.70;;
58470;SDS011;44258;51.288;12.068;2023-03-05T05:56:41;3.97;;;1.50;;
58470;SDS011;44258;51.288;12.068;2023-03-05T05:59:08;4.53;;;1.52;;
58470;SDS011;44258;51.288;12.068;2023-03-05T06:01:36;4.93;;;1.23;;
58470;SDS011;44258;51.288;12.068;2023-03-05T06:04:03;3.78;;;1.10;;
58470;SDS011;44258;51.288;12.068;2023-03-05T06:06:31;5.00;;;1.30;;
58470;SDS011;44258;51.288;12.068;2023-03-05T06:08:59;4.35;;;1.40;;
58470;SDS011;44258;51.288;12.068;2023-03-05T06:11:29;5.60;;;1.35;;
58470;SDS011;44258;51.288;12.068;2023-03-05T06:13:56;7.65;;;1.90;;
58470;SDS011;44258;51.288;12.068;2023-03-05T06:16:23;4.38;;;1.40;;
58470;SDS011;44258;51.288;12.068;2023-03-05T06:18:50;3.22;;;1.15;;
58470;SDS011;44258;51.288;12.068;2023-03-05T06:21:18;7.93;;;1.55;;
58470;SDS011;44258;51.288;12.068;2023-03-05T06:23:49;4.72;;;1.42;;
58470;SDS011;44258;51.288;12.068;2023-03-05T06:26:17;3.55;;;1.40;;
58470;SDS011;44258;51.288;12.068;2023-03-05T06:28:45;3.88;;;1.40;;
58470;SDS011;44258;51.288;12.068;2023-03-05T06:31:12;4.03;;;1.27;;
58470;SDS011;44258;51.288;12.068;2023-03-05T06:33:42;7.43;;;1.58;;
58470;SDS011;44258;51.288;12.068;2023-03-05T06:36:10;6.50;;;1.42;;
58470;SDS011;44258;51.288;12.068;2023-03-05T06:38:38;5.22;;;1.10;;
58470;SDS011;44258;51.288;12.068;2023-03-05T06:41:11;3.05;;;1.30;;
58470;SDS011;44258;51.288;12.068;2023-03-05T06:43:39;3.92;;;1.25;;
58470;SDS011;44258;51.288;12.068;2023-03-05T06:46:10;5.70;;;1.30;;
58470;SDS011;44258;51.288;12.068;2023-03-05T06:48:38;7.00;;;1.55;;
58470;SDS011;44258;51.288;12.068;2023-03-05T06:51:11;3.88;;;1.40;;
58470;SDS011;44258;51.288;12.068;2023-03-05T06:53:39;3.63;;;1.58;;
58470;SDS011;44258;51.288;12.068;2023-03-05T06:56:06;3.97;;;1.45;;
58470;SDS011;44258;51.288;12.068;2023-03-05T06:58:34;5.05;;;1.50;;
58470;SDS011;44258;51.288;12.068;2023-03-05T07:01:01;5.53;;;1.50;;
58470;SDS011;44258;51.288;12.068;2023-03-05T07:03:30;4.75;;;1.50;;
58470;SDS011;44258;51.288;12.068;2023-03-05T07:06:01;3.78;;;1.50;;
58470;SDS011;44258;51.288;12.068;2023-03-05T07:08:28;5.78;;;1.60;;
58470;SDS011;44258;51.288;12.068;2023-03-05T07:10:54;5.07;;;1.40;;
58470;SDS011;44258;51.288;12.068;2023-03-05T07:13:21;9.25;;;1.88;;
58470;SDS011;44258;51.288;12.068;2023-03-05T07:15:49;4.78;;;1.30;;
58470;SDS011;44258;51.288;12.068;2023-03-05T07:18:16;4.53;;;1.48;;
58470;SDS011;44258;51.288;12.068;2023-03-05T07:20:43;5.32;;;1.55;;
58470;SDS011;44258;51.288;12.068;2023-03-05T07:23:10;5.65;;;1.95;;
58470;SDS011;44258;51.288;12.068;2023-03-05T07:25:37;9.18;;;2.30;;
58470;SDS011;44258;51.288;12.068;2023-03-05T07:28:04;8.00;;;2.90;;
58470;SDS011;44258;51.288;12.068;2023-03-05T07:30:31;10.07;;;3.17;;
58470;SDS011;44258;51.288;12.068;2023-03-05T07:33:00;8.73;;;3.42;;
58470;SDS011;44258;51.288;12.068;2023-03-05T07:35:27;7.55;;;3.28;;
58470;SDS011;44258;51.288;12.068;2023-03-05T07:37:54;9.95;;;3.85;;
58470;SDS011;44258;51.288;12.068;2023-03-05T07:40:21;10.00;;;4.00;;
58470;SDS011;44258;51.288;12.068;2023-03-05T07:42:47;9.90;;;3.50;;
58470;SDS011;44258;51.288;12.068;2023-03-05T07:45:14;7.47;;;3.03;;
58470;SDS011;44258;51.288;12.068;2023-03-05T07:47:41;7.20;;;3.20;;
58470;SDS011;44258;51.288;12.068;2023-03-05T07:50:10;12.98;;;3.33;;
58470;SDS011;44258;51.288;12.068;2023-03-05T07:52:37;8.07;;;2.63;;
58470;SDS011;44258;51.288;12.068;2023-03-05T07:55:04;10.05;;;2.90;;
58470;SDS011;44258;51.288;12.068;2023-03-05T07:57:31;8.32;;;2.78;;
58470;SDS011;44258;51.288;12.068;2023-03-05T07:59:59;6.40;;;2.38;;
58470;SDS011;44258;51.288;12.068;2023-03-05T08:02:26;6.70;;;2.47;;
58470;SDS011;44258;51.288;12.068;2023-03-05T08:04:53;8.13;;;3.35;;
58470;SDS011;44258;51.288;12.068;2023-03-05T08:07:22;9.13;;;3.47;;
58470;SDS011;44258;51.288;12.068;2023-03-05T08:09:49;9.70;;;3.60;;
58470;SDS011;44258;51.288;12.068;2023-03-05T08:12:15;9.85;;;4.00;;
58470;SDS011;44258;51.288;12.068;2023-03-05T08:14:42;8.48;;;3.50;;
58470;SDS011;44258;51.288;12.068;2023-03-05T08:17:08;7.85;;;2.95;;
58470;SDS011;44258;51.288;12.068;2023-03-05T08:19:35;5.97;;;2.42;;
58470;SDS011;44258;51.288;12.068;2023-03-05T08:22:02;7.38;;;2.30;;
58470;SDS011;44258;51.288;12.068;2023-03-05T08:24:30;7.78;;;2.13;;
58470;SDS011;44258;51.288;12.068;2023-03-05T08:26:57;6.93;;;1.98;;
58470;SDS011;44258;51.288;12.068;2023-03-05T08:29:24;6.03;;;2.10;;
58470;SDS011;44258;51.288;12.068;2023-03-05T08:31:53;6.93;;;1.70;;
58470;SDS011;44258;51.288;12.068;2023-03-05T08:34:20;10.95;;;2.10;;
58470;SDS011;44258;51.288;12.068;2023-03-05T08:36:48;8.10;;;2.20;;
58470;SDS011;44258;51.288;12.068;2023-03-05T08:39:15;6.47;;;1.85;;
58470;SDS011;44258;51.288;12.068;2023-03-05T08:41:44;5.35;;;1.92;;
58470;SDS011;44258;51.288;12.068;2023-03-05T08:44:11;8.35;;;2.38;;
58470;SDS011;44258;51.288;12.068;2023-03-05T08:46:37;7.45;;;2.20;;
58470;SDS011;44258;51.288;12.068;2023-03-05T08:49:04;10.52;;;2.47;;
58470;SDS011;44258;51.288;12.068;2023-03-05T08:51:32;5.68;;;2.10;;
58470;SDS011;44258;51.288;12.068;2023-03-05T08:54:00;7.05;;;2.38;;
58470;SDS011;44258;51.288;12.068;2023-03-05T08:56:31;8.18;;;2.70;;
58470;SDS011;44258;51.288;12.068;2023-03-05T08:58:59;6.30;;;2.33;;
58470;SDS011;44258;51.288;12.068;2023-03-05T09:01:27;9.52;;;2.70;;
58470;SDS011;44258;51.288;12.068;2023-03-05T09:03:54;8.45;;;2.70;;
58470;SDS011;44258;51.288;12.068;2023-03-05T09:06:22;9.45;;;2.92;;
58470;SDS011;44258;51.288;12.068;2023-03-05T09:08:49;6.80;;;2.50;;
58470;SDS011;44258;51.288;12.068;2023-03-05T09:11:16;10.45;;;2.53;;
58470;SDS011;44258;51.288;12.068;2023-03-05T09:13:42;5.35;;;2.20;;
58470;SDS011;44258;51.288;12.068;2023-03-05T09:16:11;7.82;;;2.42;;
58470;SDS011;44258;51.288;12.068;2023-03-05T09:18:39;9.18;;;2.90;;
58470;SDS011;44258;51.288;12.068;2023-03-05T09:21:10;11.75;;;3.38;;
58470;SDS011;44258;51.288;12.068;2023-03-05T09:23:38;6.13;;;2.42;;
58470;SDS011;44258;51.288;12.068;2023-03-05T09:26:06;7.95;;;2.50;;
58470;SDS011;44258;51.288;12.068;2023-03-05T09:28:33;7.55;;;2.78;;
58470;SDS011;44258;51.288;12.068;2023-03-05T09:31:01;8.88;;;2.65;;
58470;SDS011;44258;51.288;12.068;2023-03-05T09:33:30;8.95;;;2.70;;
58470;SDS011;44258;51.288;12.068;2023-03-05T09:35:57;8.02;;;2.38;;
58470;SDS011;44258;51.288;12.068;2023-03-05T09:38:24;7.70;;;2.90;;
58470;SDS011;44258;51.288;12.068;2023-03-05T09:40:54;11.35;;;2.70;;
58470;SDS011;44258;51.288;12.068;2023-03-05T09:43:29;9.10;;;3.47;;
58470;SDS011;44258;51.288;12.068;2023-03-05T09:46:11;8.02;;;2.90;;
58470;SDS011;44258;51.288;12.068;2023-03-05T09:48:49;9.15;;;3.28;;
58470;SDS011;44258;51.288;12.068;2023-03-05T09:51:20;5.88;;;3.05;;
58470;SDS011;44258;51.288;12.068;2023-03-05T09:53:51;11.05;;;3.90;;
58470;SDS011;44258;51.288;12.068;2023-03-05T09:56:24;9.98;;;3.58;;
58470;SDS011;44258;51.288;12.068;2023-03-05T09:58:55;13.95;;;4.07;;
58470;SDS011;44258;51.288;12.068;2023-03-05T10:01:26;9.32;;;3.97;;
58470;SDS011;44258;51.288;12.068;2023-03-05T10:04:00;7.13;;;2.90;;
58470;SDS011;44258;51.288;12.068;2023-03-05T10:06:33;7.90;;;3.00;;
58470;SDS011;44258;51.288;12.068;2023-03-05T10:09:02;6.97;;;2.83;;
58470;SDS011;44258;51.288;12.068;2023-03-05T10:11:35;7.97;;;2.70;;
58470;SDS011;44258;51.288;12.068;2023-03-05T10:14:09;8.00;;;3.35;;
58470;SDS011;44258;51.288;12.068;2023-03-05T10:16:43;9.10;;;3.45;;
58470;SDS011;44258;51.288;12.068;2023-03-05T10:22:30;12.23;;;3.58;;
58470;SDS011;44258;51.288;12.068;2023-03-05T10:25:04;8.25;;;3.28;;
58470;SDS011;44258;51.288;12.068;2023-03-05T10:27:45;8.52;;;3.28;;
58470;SDS011;44258;51.288;12.068;2023-03-05T10:30:31;9.50;;;3.70;;
58470;SDS011;44258;51.288;12.068;2023-03-05T10:33:20;11.50;;;3.97;;
58470;SDS011;44258;51.288;12.068;2023-03-05T10:36:04;9.85;;;3.85;;
58470;SDS011;44258;51.288;12.068;2023-03-05T10:38:58;8.52;;;3.20;;
58470;SDS011;44258;51.288;12.068;2023-03-05T10:41:48;7.43;;;3.45;;
58470;SDS011;44258;51.288;12.068;2023-03-05T10:44:30;9.25;;;3.03;;
58470;SDS011;44258;51.288;12.068;2023-03-05T10:47:01;6.50;;;2.58;;
58470;SDS011;44258;51.288;12.068;2023-03-05T10:49:36;5.85;;;2.40;;
58470;SDS011;44258;51.288;12.068;2023-03-05T10:52:10;5.13;;;2.05;;
58470;SDS011;44258;51.288;12.068;2023-03-05T10:54:41;9.05;;;2.40;;
58470;SDS011;44258;51.288;12.068;2023-03-05T10:57:12;6.10;;;2.20;;
58470;SDS011;44258;51.288;12.068;2023-03-05T10:59:43;5.43;;;2.05;;
58470;SDS011;44258;51.288;12.068;2023-03-05T11:02:13;4.35;;;1.83;;
58470;SDS011;44258;51.288;12.068;2023-03-05T11:04:40;5.97;;;1.80;;
58470;SDS011;44258;51.288;12.068;2023-03-05T11:07:27;6.75;;;2.00;;
58470;SDS011;44258;51.288;12.068;2023-03-05T11:10:09;5.22;;;2.17;;
58470;SDS011;44258;51.288;12.068;2023-03-05T11:12:40;5.40;;;1.73;;
58470;SDS011;44258;51.288;12.068;2023-03-05T11:15:27;5.28;;;2.30;;
58470;SDS011;44258;51.288;12.068;2023-03-05T11:18:06;5.93;;;2.88;;
58470;SDS011;44258;51.288;12.068;2023-03-05T11:23:11;8.95;;;3.10;;
58470;SDS011;44258;51.288;12.068;2023-03-05T11:25:50;7.55;;;3.20;;
58470;SDS011;44258;51.288;12.068;2023-03-05T11:28:21;8.55;;;3.00;;
58470;SDS011;44258;51.288;12.068;2023-03-05T11:30:56;6.88;;;2.67;;
58470;SDS011;44258;51.288;12.068;2023-03-05T11:33:29;4.78;;;2.20;;
58470;SDS011;44258;51.288;12.068;2023-03-05T11:38:54;6.50;;;2.70;;
58470;SDS011;44258;51.288;12.068;2023-03-05T11:41:26;7.13;;;2.70;;
58470;SDS011;44258;51.288;12.068;2023-03-05T11:43:56;7.80;;;2.90;;
58470;SDS011;44258;51.288;12.068;2023-03-05T11:46:27;8.73;;;2.83;;
58470;SDS011;44258;51.288;12.068;2023-03-05T11:48:55;8.57;;;2.97;;
58470;SDS011;44258;51.288;12.068;2023-03-05T11:51:25;7.38;;;2.92;;
58470;SDS011;44258;51.288;12.068;2023-03-05T11:54:00;7.43;;;3.10;;
58470;SDS011;44258;51.288;12.068;2023-03-05T11:56:35;7.88;;;2.60;;
58470;SDS011;44258;51.288;12.068;2023-03-05T11:59:03;7.03;;;3.13;;
58470;SDS011;44258;51.288;12.068;2023-03-05T12:01:39;7.35;;;3.10;;
58470;SDS011;44258;51.288;12.068;2023-03-05T12:04:10;8.90;;;3.63;;
58470;SDS011;44258;51.288;12.068;2023-03-05T12:06:37;10.57;;;2.92;;
58470;SDS011;44258;51.288;12.068;2023-03-05T12:09:11;8.70;;;2.70;;
58470;SDS011;44258;51.288;12.068;2023-03-05T12:11:42;9.20;;;3.13;;
58470;SDS011;44258;51.288;12.068;2023-03-05T12:14:13;8.80;;;2.65;;
58470;SDS011;44258;51.288;12.068;2023-03-05T12:19:28;7.22;;;2.88;;
58470;SDS011;44258;51.288;12.068;2023-03-05T12:21:59;10.43;;;2.70;;
58470;SDS011;44258;51.288;12.068;2023-03-05T12:24:37;8.25;;;3.15;;
58470;SDS011;44258;51.288;12.068;2023-03-05T12:27:09;7.43;;;2.95;;
58470;SDS011;44258;51.288;12.068;2023-03-05T12:29:43;4.93;;;1.90;;
58470;SDS011;44258;51.288;12.068;2023-03-05T12:35:21;1.75;;;0.90;;
58470;SDS011;44258;51.288;12.068;2023-03-05T12:37:56;1.23;;;0.70;;
58470;SDS011;44258;51.288;12.068;2023-03-05T12:49:47;3.72;;;1.25;;
58470;SDS011;44258;51.288;12.068;2023-03-05T12:52:25;2.42;;;1.20;;
58470;SDS011;44258;51.288;12.068;2023-03-05T12:55:12;2.13;;;1.10;;
58470;SDS011;44258;51.288;12.068;2023-03-05T12:57:42;4.45;;;1.50;;
58470;SDS011;44258;51.288;12.068;2023-03-05T13:00:13;3.92;;;1.55;;
58470;SDS011;44258;51.288;12.068;2023-03-05T13:02:45;4.30;;;1.95;;
58470;SDS011;44258;51.288;12.068;2023-03-05T13:05:19;11.25;;;4.00;;
58470;SDS011;44258;51.288;12.068;2023-03-05T13:07:49;4.10;;;1.45;;
58470;SDS011;44258;51.288;12.068;2023-03-05T13:10:20;6.22;;;1.90;;
58470;SDS011;44258;51.288;12.068;2023-03-05T13:12:49;7.68;;;2.10;;
58470;SDS011;44258;51.288;12.068;2023-03-05T13:15:20;9.18;;;2.03;;
58470;SDS011;44258;51.288;12.068;2023-03-05T13:17:53;3.13;;;1.60;;
58470;SDS011;44258;51.288;12.068;2023-03-05T13:20:23;3.08;;;1.50;;
58470;SDS011;44258;51.288;12.068;2023-03-05T13:23:11;4.38;;;1.40;;
58470;SDS011;44258;51.288;12.068;2023-03-05T13:25:40;4.25;;;1.65;;
58470;SDS011;44258;51.288;12.068;2023-03-05T13:28:10;4.88;;;2.00;;
58470;SDS011;44258;51.288;12.068;2023-03-05T13:30:42;3.45;;;1.45;;
58470;SDS011;44258;51.288;12.068;2023-03-05T13:33:12;5.03;;;1.95;;
58470;SDS011;44258;51.288;12.068;2023-03-05T13:35:43;3.22;;;1.40;;
58470;SDS011;44258;51.288;12.068;2023-03-05T13:38:20;4.55;;;1.40;;
58470;SDS011;44258;51.288;12.068;2023-03-05T13:40:59;6.15;;;1.77;;
58470;SDS011;44258;51.288;12.068;2023-03-05T13:43:30;5.13;;;1.98;;
58470;SDS011;44258;51.288;12.068;2023-03-05T13:45:59;4.88;;;2.05;;
58470;SDS011;44258;51.288;12.068;2023-03-05T13:48:26;5.65;;;1.50;;
58470;SDS011;44258;51.288;12.068;2023-03-05T13:50:54;8.18;;;2.20;;
58470;SDS011;44258;51.288;12.068;2023-03-05T13:53:23;3.80;;;1.30;;
58470;SDS011;44258;51.288;12.068;2023-03-05T13:55:52;3.25;;;0.80;;
58470;SDS011;44258;51.288;12.068;2023-03-05T14:01:14;3.83;;;1.15;;
58470;SDS011;44258;51.288;12.068;2023-03-05T14:03:49;1.50;;;0.60;;
58470;SDS011;44258;51.288;12.068;2023-03-05T14:06:17;1.65;;;0.70;;
58470;SDS011;44258;51.288;12.068;2023-03-05T14:08:50;3.15;;;0.85;;
58470;SDS011;44258;51.288;12.068;2023-03-05T14:11:18;2.50;;;0.80;;
58470;SDS011;44258;51.288;12.068;2023-03-05T14:13:44;1.20;;;0.80;;
58470;SDS011;44258;51.288;12.068;2023-03-05T14:16:14;2.13;;;0.80;;
58470;SDS011;44258;51.288;12.068;2023-03-05T14:18:51;1.60;;;0.70;;
58470;SDS011;44258;51.288;12.068;2023-03-05T14:21:19;1.65;;;0.75;;
58470;SDS011;44258;51.288;12.068;2023-03-05T14:23:46;2.97;;;1.00;;
58470;SDS011;44258;51.288;12.068;2023-03-05T14:26:17;1.27;;;0.40;;
58470;SDS011;44258;51.288;12.068;2023-03-05T14:28:56;1.35;;;0.80;;
58470;SDS011;44258;51.288;12.068;2023-03-05T14:31:26;0.80;;;0.47;;
58470;SDS011;44258;51.288;12.068;2023-03-05T14:33:58;2.80;;;0.80;;
58470;SDS011;44258;51.288;12.068;2023-03-05T14:36:27;1.85;;;0.63;;
58470;SDS011;44258;51.288;12.068;2023-03-05T14:38:56;4.03;;;1.08;;
58470;SDS011;44258;51.288;12.068;2023-03-05T14:41:32;1.35;;;0.82;;
58470;SDS011;44258;51.288;12.068;2023-03-05T14:44:04;6.50;;;2.03;;
58470;SDS011;44258;51.288;12.068;2023-03-05T14:46:37;21.33;;;8.10;;
58470;SDS011;44258;51.288;12.068;2023-03-05T14:49:04;2.92;;;1.23;;
58470;SDS011;44258;51.288;12.068;2023-03-05T14:51:31;1.08;;;0.80;;
58470;SDS011;44258;51.288;12.068;2023-03-05T14:54:02;2.05;;;0.80;;
58470;SDS011;44258;51.288;12.068;2023-03-05T14:56:30;1.45;;;0.90;;
58470;SDS011;44258;51.288;12.068;2023-03-05T14:58:58;1.20;;;0.80;;
58470;SDS011;44258;51.288;12.068;2023-03-05T15:01:24;4.10;;;1.30;;
58470;SDS011;44258;51.288;12.068;2023-03-05T15:03:53;1.85;;;0.88;;
58470;SDS011;44258;51.288;12.068;2023-03-05T15:06:20;2.13;;;0.73;;
58470;SDS011;44258;51.288;12.068;2023-03-05T15:08:52;2.03;;;1.15;;
58470;SDS011;44258;51.288;12.068;2023-03-05T15:11:19;4.03;;;1.10;;
58470;SDS011;44258;51.288;12.068;2023-03-05T15:13:46;2.83;;;1.05;;
58470;SDS011;44258;51.288;12.068;2023-03-05T15:16:16;2.63;;;1.40;;